Terminal Aerodrome Forecast
Issued by NWS

Home | Current Version | Previous Version | Text Only | Print | Product List | Glossary On
Versions: 1 2 3 4 5 6 7 8 9 10 11 12 13 14 15 16 17 18 19 20 21 22
000
FTUS44 KLZK 192300
TAFHRO
TAF
KHRO 192335Z 2000/2024 30009KT 5SM TSRA BR OVC050CB
      TEMPO 2000/2004 2SM TSRA BR OVC025CB
     FM200400 29010KT 5SM SHRA BR BKN015 OVC040
     FM200600 31010G20KT P6SM BKN025
     FM200900 31012G22KT P6SM SCT250=

USA.gov is the U.S. government's official web portal to all federal, state and local government web resources and services.